createdAt,value
2018-05-13T00:02:13.105Z,96.84
2018-05-13T00:04:39.481Z,96.93
2018-05-13T00:07:06.071Z,97.02
2018-05-13T00:09:32.497Z,96.67
2018-05-13T00:11:58.986Z,96.91
2018-05-13T00:14:25.286Z,96.77
2018-05-13T00:16:51.705Z,96.55
2018-05-13T00:19:18.141Z,96.58
2018-05-13T00:21:44.514Z,96.43
2018-05-13T00:24:10.900Z,96.80
2018-05-13T00:26:37.442Z,96.77
2018-05-13T00:29:03.768Z,96.37
2018-05-13T00:31:30.150Z,96.59
2018-05-13T00:33:56.673Z,97.06
2018-05-13T00:36:22.999Z,97.12
2018-05-13T00:38:49.355Z,97.99
2018-05-13T00:41:15.749Z,97.91
2018-05-13T00:43:42.062Z,97.67
2018-05-13T00:46:08.500Z,97.32
2018-05-13T00:48:34.935Z,97.00
2018-05-13T00:51:01.472Z,98.15
2018-05-13T00:53:27.905Z,98.17
2018-05-13T00:55:54.546Z,97.33
2018-05-13T00:58:20.896Z,96.90
2018-05-13T01:00:47.410Z,97.44
2018-05-13T01:03:14.367Z,97.27
2018-05-13T01:05:40.731Z,97.40
2018-05-13T01:08:07.111Z,98.39
2018-05-13T01:10:33.545Z,98.25
2018-05-13T01:13:00.087Z,97.01
2018-05-13T01:15:26.483Z,97.59
2018-05-13T01:17:53.171Z,96.98
2018-05-13T01:20:19.504Z,96.49
2018-05-13T01:22:45.872Z,97.50
2018-05-13T01:25:12.214Z,98.25
2018-05-13T01:27:38.521Z,97.67
2018-05-13T01:30:04.895Z,96.79
2018-05-13T01:32:31.355Z,97.74
2018-05-13T01:34:57.658Z,97.14
2018-05-13T01:37:24.226Z,98.24
2018-05-13T01:39:50.765Z,98.67
2018-05-13T01:42:17.157Z,99.00
2018-05-13T01:44:43.521Z,98.77
2018-05-13T01:47:09.825Z,98.50
2018-05-13T01:49:36.251Z,98.48
2018-05-13T01:52:02.780Z,98.90
2018-05-13T01:54:29.263Z,99.03
2018-05-13T01:56:55.571Z,98.58
2018-05-13T01:59:22.028Z,98.52
2018-05-13T02:01:48.554Z,98.93
2018-05-13T02:04:14.887Z,98.90
2018-05-13T02:06:41.436Z,98.58
2018-05-13T02:09:07.935Z,98.46
2018-05-13T02:11:34.465Z,98.41
2018-05-13T02:14:01.043Z,98.39
2018-05-13T02:16:27.412Z,98.76
2018-05-13T02:18:53.713Z,98.77
2018-05-13T02:21:20.087Z,98.56
2018-05-13T02:23:46.573Z,98.57
2018-05-13T02:26:12.959Z,98.77
2018-05-13T02:28:39.440Z,98.65
2018-05-13T02:31:05.956Z,98.64
2018-05-13T02:33:32.517Z,98.66
2018-05-13T02:35:59.052Z,98.59
2018-05-13T02:38:25.484Z,98.35
2018-05-13T02:40:51.883Z,98.42
2018-05-13T02:43:18.456Z,98.20
2018-05-13T02:45:44.882Z,99.01
2018-05-13T02:48:11.264Z,99.04
2018-05-13T02:50:37.652Z,98.97
2018-05-13T02:53:04.048Z,98.29
2018-05-13T02:55:30.518Z,98.74
2018-05-13T02:57:56.953Z,99.56
2018-05-13T03:00:23.447Z,99.04
2018-05-13T03:02:50.134Z,99.32
2018-05-13T03:05:16.617Z,99.22
2018-05-13T03:07:43.055Z,99.17
2018-05-13T03:10:09.378Z,99.23
2018-05-13T03:12:35.883Z,98.72
2018-05-13T03:15:02.299Z,98.16
2018-05-13T03:17:28.624Z,97.97
2018-05-13T03:19:55.097Z,97.98
2018-05-13T03:22:21.493Z,97.23
2018-05-13T03:24:48.803Z,96.72
2018-05-13T03:27:15.146Z,96.37
2018-05-13T03:29:41.716Z,95.93
2018-05-13T03:32:08.254Z,96.03
2018-05-13T03:34:34.557Z,95.39
2018-05-13T03:37:01.080Z,94.05
2018-05-13T03:39:27.555Z,94.37
2018-05-13T03:41:54.050Z,94.62
2018-05-13T03:44:20.402Z,94.71
2018-05-13T03:46:46.857Z,96.19
2018-05-13T03:49:13.394Z,95.87
2018-05-13T03:51:40.551Z,96.34
2018-05-13T03:54:07.184Z,96.35
2018-05-13T03:56:33.609Z,97.07
2018-05-13T03:59:00.044Z,96.73
2018-05-13T04:01:26.488Z,96.00
2018-05-13T04:03:52.864Z,94.54
2018-05-13T04:06:19.307Z,94.49
2018-05-13T04:08:57.868Z,95.71
2018-05-13T04:11:36.785Z,96.56
2018-05-13T04:14:15.624Z,96.43
2018-05-13T04:16:42.264Z,96.74
2018-05-13T04:19:09.341Z,96.48
2018-05-13T04:21:35.801Z,96.72
2018-05-13T04:24:02.193Z,96.44
2018-05-13T04:26:28.610Z,96.03
2018-05-13T04:28:55.145Z,97.14
2018-05-13T04:31:21.899Z,97.43
2018-05-13T04:33:48.313Z,97.57
2018-05-13T04:36:14.660Z,96.67
2018-05-13T04:38:41.099Z,97.20
2018-05-13T04:41:07.592Z,96.40
2018-05-13T04:43:33.971Z,96.96
2018-05-13T04:46:00.484Z,96.25
2018-05-13T04:48:27.140Z,96.30
2018-05-13T04:50:53.770Z,97.05
2018-05-13T04:53:20.415Z,96.73
2018-05-13T04:55:46.734Z,96.49
2018-05-13T04:58:13.688Z,96.50
2018-05-13T05:00:40.416Z,96.05
2018-05-13T05:03:07.405Z,95.57
2018-05-13T05:05:34.221Z,96.18
2018-05-13T05:08:00.739Z,96.22
2018-05-13T05:10:27.504Z,94.85
2018-05-13T05:12:54.946Z,95.94
2018-05-13T05:15:21.674Z,95.81
2018-05-13T05:17:48.298Z,96.65
2018-05-13T05:20:15.373Z,96.55
2018-05-13T05:22:42.211Z,94.73
2018-05-13T05:25:08.856Z,96.17
2018-05-13T05:27:35.485Z,94.25
2018-05-13T05:30:02.367Z,94.47
2018-05-13T05:32:29.811Z,95.49
2018-05-13T05:34:56.329Z,96.32
2018-05-13T05:37:23.179Z,96.02
2018-05-13T05:39:50.014Z,95.41
2018-05-13T05:42:17.021Z,94.55
2018-05-13T05:44:44.129Z,95.99
2018-05-13T05:47:11.106Z,96.04
2018-05-13T05:49:37.812Z,96.61
2018-05-13T05:52:05.605Z,97.03
2018-05-13T05:54:32.866Z,96.01
2018-05-13T05:56:59.533Z,96.70
2018-05-13T05:59:26.628Z,96.21
2018-05-13T06:01:53.392Z,96.09
2018-05-13T06:04:23.640Z,97.07
2018-05-13T06:06:51.000Z,98.08
2018-05-13T06:09:17.689Z,97.82
2018-05-13T06:11:45.005Z,96.47
2018-05-13T06:14:12.060Z,95.95
2018-05-13T06:16:39.114Z,95.30
2018-05-13T06:19:06.456Z,94.52
2018-05-13T06:21:33.603Z,94.57
2018-05-13T06:24:00.539Z,95.69
2018-05-13T06:26:27.414Z,94.00
2018-05-13T06:28:53.926Z,92.84
2018-05-13T06:31:21.832Z,92.25
2018-05-13T06:33:48.251Z,93.35
2018-05-13T06:36:14.904Z,93.13
2018-05-13T06:38:41.423Z,93.03
2018-05-13T06:41:07.978Z,92.04
2018-05-13T06:43:34.875Z,93.54
2018-05-13T06:46:01.237Z,92.84
2018-05-13T06:48:28.068Z,90.43
2018-05-13T06:50:54.634Z,90.49
2018-05-13T06:53:21.143Z,89.46
2018-05-13T06:55:47.682Z,89.47
2018-05-13T06:58:14.195Z,86.43
2018-05-13T07:00:40.726Z,87.21
2018-05-13T07:03:09.082Z,86.18
2018-05-13T07:05:35.534Z,84.94
2018-05-13T07:08:01.900Z,86.07
2018-05-13T07:10:29.542Z,83.99
2018-05-13T07:12:56.179Z,81.53
2018-05-13T07:15:22.644Z,80.86
2018-05-13T07:17:49.191Z,81.77
2018-05-13T07:20:15.714Z,80.36
2018-05-13T07:22:42.639Z,81.07
2018-05-13T07:25:10.589Z,79.50
2018-05-13T07:27:37.629Z,80.14
2018-05-13T07:30:05.699Z,80.91
2018-05-13T07:32:32.499Z,81.28
2018-05-13T07:34:59.901Z,80.81
2018-05-13T07:37:26.382Z,79.55
2018-05-13T07:39:53.451Z,78.30
2018-05-13T07:42:23.675Z,79.24
2018-05-13T07:44:50.653Z,82.03
2018-05-13T07:47:17.947Z,82.71
2018-05-13T07:49:45.264Z,80.77
2018-05-13T07:52:15.658Z,79.28
2018-05-13T08:14:42.739Z,74.38
2018-05-13T08:17:09.169Z,74.05
2018-05-13T08:19:36.651Z,72.46
2018-05-13T08:22:04.201Z,72.17
2018-05-13T08:24:30.911Z,74.10
2018-05-13T08:26:58.951Z,71.73
2018-05-13T08:29:26.912Z,67.90
2018-05-13T08:31:54.080Z,68.72
2018-05-13T08:34:20.824Z,70.07
2018-05-13T08:36:47.529Z,72.12
2018-05-13T08:39:14.635Z,63.97
2018-05-13T08:41:41.356Z,65.63
2018-05-13T08:44:09.185Z,66.73
2018-05-13T08:46:36.413Z,65.72
2018-05-13T08:49:06.004Z,65.24
2018-05-13T08:51:37.467Z,63.92
2018-05-13T08:54:08.673Z,64.54
2018-05-13T08:56:39.783Z,62.09
2018-05-13T08:59:09.015Z,63.39
2018-05-13T09:01:39.623Z,61.96
2018-05-13T09:04:10.976Z,65.76
2018-05-13T09:06:42.140Z,62.66
2018-05-13T09:09:11.019Z,57.36
2018-05-13T09:11:40.192Z,58.43
2018-05-13T09:14:09.319Z,58.43
2018-05-13T09:16:38.641Z,61.37
2018-05-13T09:19:07.710Z,60.07
2018-05-13T09:21:42.646Z,60.37
2018-05-13T09:24:09.536Z,55.41
2018-05-13T09:26:36.109Z,55.99
2018-05-13T09:29:02.649Z,60.04
2018-05-13T09:31:29.122Z,58.00
2018-05-13T09:36:50.226Z,56.29
2018-05-13T09:39:16.964Z,60.68
2018-05-13T09:41:43.493Z,58.02
2018-05-13T09:44:11.991Z,59.49
2018-05-13T09:46:38.716Z,60.58
2018-05-13T09:49:05.320Z,64.82
2018-05-13T09:51:32.099Z,60.69
2018-05-13T09:54:06.374Z,58.50
2018-05-13T09:56:32.990Z,58.04
2018-05-13T09:58:59.499Z,62.10
2018-05-13T10:01:26.142Z,59.79
2018-05-13T10:03:52.842Z,59.37
2018-05-13T10:06:19.266Z,60.02
2018-05-13T10:08:45.915Z,66.82
2018-05-13T10:11:12.877Z,74.72
2018-05-13T10:13:39.776Z,78.12
2018-05-13T10:16:08.187Z,82.93
2018-05-13T10:18:36.247Z,79.56
2018-05-13T10:21:03.692Z,80.17
2018-05-13T10:23:32.194Z,77.41
2018-05-13T10:25:59.783Z,77.58
2018-05-13T10:28:30.126Z,74.09
2018-05-13T10:30:57.581Z,73.22
2018-05-13T10:33:24.676Z,71.01
2018-05-13T10:35:51.770Z,66.72
2018-05-13T10:38:18.530Z,71.30
2018-05-13T10:40:45.513Z,63.11
2018-05-13T10:43:12.671Z,60.75
2018-05-13T10:45:39.378Z,64.30
2018-05-13T10:48:06.509Z,64.16
2018-05-13T10:50:33.305Z,55.09
2018-05-13T10:53:07.089Z,60.72
2018-05-13T10:55:33.684Z,67.70
2018-05-13T10:58:01.057Z,56.94
2018-05-13T11:00:28.286Z,62.83
2018-05-13T11:03:00.083Z,59.63
2018-05-13T11:05:28.951Z,51.72
2018-05-13T11:07:55.964Z,54.92
2018-05-13T11:10:24.495Z,54.55
2018-05-13T11:12:56.636Z,50.48
2018-05-13T11:15:24.369Z,47.60
2018-05-13T11:17:52.199Z,43.99
2018-05-13T11:20:19.301Z,51.87
2018-05-13T11:22:46.699Z,56.69
2018-05-13T11:25:15.170Z,55.43
2018-05-13T11:27:43.551Z,51.06
2018-05-13T11:30:11.622Z,55.10
2018-05-13T11:32:43.295Z,58.50
2018-05-13T11:35:12.054Z,47.90
2018-05-13T11:37:38.789Z,52.92
2018-05-13T11:40:05.803Z,54.53
2018-05-13T11:42:32.719Z,58.96
2018-05-13T11:45:03.447Z,56.36
2018-05-13T11:47:31.247Z,52.56
2018-05-13T11:49:59.449Z,50.98
2018-05-13T11:52:29.455Z,51.10
2018-05-13T11:54:56.204Z,55.87
2018-05-13T11:57:22.921Z,57.72
2018-05-13T11:59:49.619Z,55.97
2018-05-13T12:02:16.630Z,58.22
2018-05-13T12:04:43.227Z,52.07
2018-05-13T12:07:09.896Z,49.81
2018-05-13T12:09:36.635Z,52.51
2018-05-13T12:12:05.258Z,52.23
2018-05-13T12:14:36.091Z,49.30
2018-05-13T12:17:03.017Z,48.91
2018-05-13T12:19:29.543Z,53.41
2018-05-13T12:21:56.298Z,54.63
2018-05-13T12:24:25.539Z,60.90
2018-05-13T12:26:52.267Z,60.01
2018-05-13T12:29:19.134Z,62.24
2018-05-13T12:31:45.787Z,60.19
2018-05-13T12:34:12.591Z,61.96
2018-05-13T12:36:39.348Z,68.47
2018-05-13T12:39:06.110Z,67.41
2018-05-13T12:41:33.116Z,69.28
2018-05-13T12:44:00.054Z,71.39
2018-05-13T12:46:26.653Z,77.38
2018-05-13T12:48:53.434Z,78.00
2018-05-13T12:51:20.114Z,78.93
2018-05-13T12:53:46.802Z,81.73
2018-05-13T12:56:13.634Z,81.01
2018-05-13T12:58:40.389Z,81.23
2018-05-13T13:01:07.003Z,77.90
2018-05-13T13:20:34.802Z,80.89
2018-05-13T13:23:01.551Z,79.95
2018-05-13T13:25:28.295Z,86.90
2018-05-13T13:27:55.163Z,77.33
2018-05-13T13:30:21.883Z,78.10
2018-05-13T13:32:48.769Z,83.87
2018-05-13T13:35:15.495Z,80.17
2018-05-13T13:37:42.088Z,82.72
2018-05-13T13:40:08.528Z,87.09
2018-05-13T13:42:35.300Z,90.03
2018-05-13T13:45:01.909Z,89.42
2018-05-13T13:47:28.438Z,90.62
2018-05-13T13:49:55.311Z,91.27
2018-05-13T13:52:22.048Z,88.04
2018-05-13T13:54:48.650Z,90.25
2018-05-13T13:57:15.564Z,88.13
2018-05-13T13:59:42.093Z,88.64
2018-05-13T14:02:08.655Z,88.47
2018-05-13T14:04:35.401Z,91.54
2018-05-13T14:07:03.853Z,90.06
2018-05-13T14:09:33.664Z,93.51
2018-05-13T14:12:03.007Z,90.38
2018-05-13T14:14:30.413Z,91.89
2018-05-13T14:16:57.387Z,90.78
2018-05-13T14:19:23.851Z,90.28
2018-05-13T14:21:51.159Z,91.51
2018-05-13T14:24:17.880Z,92.25
2018-05-13T14:26:44.611Z,90.90
2018-05-13T14:29:11.411Z,92.16
2018-05-13T14:31:38.008Z,92.31
2018-05-13T14:34:04.591Z,93.71
2018-05-13T14:36:31.064Z,92.00
2018-05-13T14:38:57.497Z,91.45
2018-05-13T14:41:24.122Z,91.97
2018-05-13T14:43:50.876Z,92.42
2018-05-13T14:46:17.364Z,92.88
2018-05-13T14:48:44.171Z,93.07
2018-05-13T14:51:11.079Z,92.35
2018-05-13T14:53:37.850Z,93.07
2018-05-13T14:56:04.722Z,94.60
2018-05-13T14:58:31.325Z,93.44
2018-05-13T15:00:58.270Z,94.62
2018-05-13T15:03:25.421Z,93.77
2018-05-13T15:05:52.189Z,94.53
2018-05-13T15:08:18.792Z,93.34
2018-05-13T15:10:45.361Z,94.15
2018-05-13T15:13:12.127Z,93.30
2018-05-13T15:15:38.995Z,95.17
2018-05-13T15:18:05.702Z,93.62
2018-05-13T15:20:32.572Z,92.44
2018-05-13T15:22:59.868Z,91.80
2018-05-13T15:25:26.507Z,91.89
2018-05-13T15:27:53.476Z,94.47
2018-05-13T15:30:22.048Z,93.71
2018-05-13T15:32:49.118Z,94.34
2018-05-13T15:35:15.819Z,94.38
2018-05-13T15:37:42.695Z,93.21
2018-05-13T15:40:10.676Z,93.06
2018-05-13T15:42:39.356Z,92.33
2018-05-13T15:45:06.429Z,91.77
2018-05-13T15:47:32.986Z,92.12
2018-05-13T15:50:00.047Z,91.87
2018-05-13T15:52:26.886Z,91.64
2018-05-13T15:54:53.679Z,90.66
2018-05-13T15:57:20.380Z,92.82
2018-05-13T15:59:46.819Z,92.48
2018-05-13T16:02:13.294Z,92.73
2018-05-13T16:04:39.984Z,94.02
2018-05-13T16:07:06.481Z,93.01
2018-05-13T16:09:33.247Z,92.76
2018-05-13T16:12:00.143Z,91.52
2018-05-13T16:14:26.842Z,93.47
2018-05-13T16:16:53.419Z,94.22
2018-05-13T16:19:20.008Z,94.13
2018-05-13T16:21:46.514Z,94.47
2018-05-13T16:24:14.609Z,95.11
2018-05-13T16:26:42.274Z,95.09
2018-05-13T16:29:08.894Z,95.28
2018-05-13T16:31:35.833Z,94.82
2018-05-13T16:34:02.714Z,95.30
2018-05-13T16:36:29.492Z,94.58
2018-05-13T16:38:56.305Z,94.99
2018-05-13T16:41:22.998Z,92.57
2018-05-13T16:43:49.740Z,91.86
2018-05-13T16:46:16.357Z,93.01
2018-05-13T16:48:43.080Z,94.94
2018-05-13T16:51:09.756Z,96.57
2018-05-13T16:53:36.813Z,96.89
2018-05-13T16:56:03.716Z,96.36
2018-05-13T16:58:30.212Z,95.98
2018-05-13T17:00:57.731Z,96.08
2018-05-13T17:03:25.726Z,96.90
2018-05-13T17:05:52.712Z,96.12
2018-05-13T17:08:19.257Z,96.10
2018-05-13T17:10:45.886Z,95.53
2018-05-13T17:13:13.593Z,97.33
2018-05-13T17:15:40.248Z,97.03
2018-05-13T17:18:06.934Z,95.74
2018-05-13T17:20:33.579Z,95.94
2018-05-13T17:23:00.233Z,95.54
2018-05-13T17:25:26.833Z,95.10
2018-05-13T17:27:53.479Z,94.46
2018-05-13T17:30:20.260Z,94.67
2018-05-13T17:32:47.161Z,93.18
2018-05-13T17:35:13.792Z,93.93
2018-05-13T17:37:40.428Z,94.14
2018-05-13T17:40:07.125Z,93.63
2018-05-13T17:42:33.759Z,93.48
2018-05-13T17:45:00.534Z,93.50
2018-05-13T17:47:27.092Z,92.04
2018-05-13T17:49:53.900Z,90.38
2018-05-13T17:52:20.422Z,92.01
2018-05-13T17:54:47.103Z,94.13
2018-05-13T17:57:13.763Z,95.35
2018-05-13T17:59:40.339Z,96.56
2018-05-13T18:02:07.031Z,96.68
2018-05-13T18:04:33.828Z,97.75
2018-05-13T18:07:00.449Z,97.90
2018-05-13T18:09:27.063Z,97.12
2018-05-13T18:11:53.582Z,97.33
2018-05-13T18:14:21.268Z,97.05
2018-05-13T18:16:47.951Z,96.12
2018-05-13T18:19:14.732Z,96.27
2018-05-13T18:21:41.724Z,97.09
2018-05-13T18:24:08.218Z,96.42
2018-05-13T18:26:35.734Z,97.55
2018-05-13T18:29:02.384Z,98.10
2018-05-13T18:31:28.847Z,97.17
2018-05-13T18:33:55.452Z,97.58
2018-05-13T18:36:21.926Z,97.94
2018-05-13T18:38:48.414Z,99.04
2018-05-13T18:41:14.954Z,98.53
2018-05-13T18:43:41.986Z,98.54
2018-05-13T18:46:08.631Z,97.68
2018-05-13T18:48:35.488Z,97.79
2018-05-13T18:51:02.202Z,97.79
2018-05-13T18:53:28.896Z,98.31
2018-05-13T18:55:56.343Z,98.31
2018-05-13T18:58:23.458Z,98.26
2018-05-13T19:00:51.037Z,97.91
2018-05-13T19:03:19.127Z,98.23
2018-05-13T19:05:45.997Z,97.58
2018-05-13T19:08:13.065Z,97.66
2018-05-13T19:10:39.748Z,97.56
2018-05-13T19:13:06.614Z,98.04
2018-05-13T19:15:33.546Z,98.23
2018-05-13T19:18:00.806Z,97.70
2018-05-13T19:20:28.100Z,98.22
2018-05-13T19:22:55.588Z,98.23
2018-05-13T19:25:23.096Z,98.43
2018-05-13T19:27:50.409Z,98.88
2018-05-13T19:30:17.867Z,98.21
2018-05-13T19:32:44.972Z,97.56
2018-05-13T19:35:12.301Z,98.21
2018-05-13T19:37:39.777Z,98.43
2018-05-13T19:40:07.591Z,99.00
2018-05-13T19:42:35.895Z,98.23
2018-05-13T19:45:04.326Z,98.17
2018-05-13T19:47:31.761Z,98.86
2018-05-13T19:49:59.132Z,99.09
2018-05-13T19:52:26.333Z,98.43
2018-05-13T19:54:53.748Z,98.00
2018-05-13T19:57:21.012Z,98.73
2018-05-13T19:59:48.207Z,98.52
2018-05-13T20:02:15.559Z,98.72
2018-05-13T20:04:42.365Z,99.46
2018-05-13T20:07:09.391Z,98.91
2018-05-13T20:09:36.671Z,98.69
2018-05-13T20:12:04.220Z,98.83
2018-05-13T20:14:32.137Z,98.63
2018-05-13T20:16:59.322Z,99.00
2018-05-13T20:19:26.568Z,99.43
2018-05-13T20:21:53.715Z,98.91
2018-05-13T20:24:20.860Z,99.02
2018-05-13T20:26:47.780Z,99.73
2018-05-13T20:29:14.447Z,99.19
2018-05-13T20:31:41.280Z,99.08
2018-05-13T20:34:07.972Z,99.37
2018-05-13T20:36:34.728Z,99.12
2018-05-13T20:39:01.467Z,99.33
2018-05-13T20:41:28.163Z,99.96
2018-05-13T20:43:54.816Z,98.89
2018-05-13T20:46:21.250Z,99.24
2018-05-13T20:48:47.778Z,98.81
2018-05-13T20:51:14.335Z,99.19
2018-05-13T20:53:40.893Z,99.16
2018-05-13T20:56:07.451Z,99.47
2018-05-13T20:58:33.912Z,100.00
2018-05-13T21:01:00.358Z,99.80
2018-05-13T21:03:27.027Z,99.87
2018-05-13T21:05:53.639Z,100.00
2018-05-13T21:08:20.166Z,100.00
2018-05-13T21:10:46.609Z,100.00
2018-05-13T21:13:13.186Z,100.00
2018-05-13T21:15:39.753Z,100.00
2018-05-13T21:18:06.257Z,100.00
2018-05-13T21:20:32.938Z,100.00
2018-05-13T21:22:59.634Z,100.00
2018-05-13T21:25:26.076Z,100.00
2018-05-13T21:27:52.605Z,100.00
2018-05-13T21:30:19.143Z,100.00
2018-05-13T21:32:45.543Z,100.00
2018-05-13T21:35:11.971Z,100.00
2018-05-13T21:37:38.382Z,100.00
2018-05-13T21:40:04.751Z,100.00
2018-05-13T21:42:31.127Z,100.00
2018-05-13T21:44:58.138Z,100.00
2018-05-13T21:47:24.591Z,100.00
2018-05-13T21:49:50.981Z,100.00
2018-05-13T21:52:17.410Z,100.00
2018-05-13T21:54:43.848Z,100.00
2018-05-13T21:57:10.265Z,100.00
2018-05-13T21:59:36.723Z,100.00
2018-05-13T22:02:03.539Z,100.00
2018-05-13T22:04:30.071Z,100.00
2018-05-13T22:06:56.437Z,100.00
2018-05-13T22:09:22.788Z,100.00
2018-05-13T22:11:49.214Z,100.00
2018-05-13T22:14:15.602Z,99.59
2018-05-13T22:16:42.088Z,99.66
2018-05-13T22:19:08.625Z,100.00
2018-05-13T22:21:35.092Z,100.00
2018-05-13T22:24:01.643Z,100.00
2018-05-13T22:26:28.177Z,100.00
2018-05-13T22:28:54.604Z,100.00
2018-05-13T22:31:21.012Z,99.99
2018-05-13T22:33:47.504Z,100.00
2018-05-13T22:36:13.847Z,100.00
2018-05-13T22:38:40.289Z,100.00
2018-05-13T22:41:06.731Z,100.00
2018-05-13T22:43:33.273Z,100.00
2018-05-13T22:45:59.695Z,100.00
2018-05-13T22:48:26.260Z,100.00
2018-05-13T22:50:52.726Z,100.00
2018-05-13T22:53:19.779Z,100.00
2018-05-13T22:55:46.228Z,100.00
2018-05-13T22:58:12.596Z,100.00
2018-05-13T23:00:39.004Z,100.00
2018-05-13T23:03:05.483Z,100.00
2018-05-13T23:05:31.913Z,100.00
2018-05-13T23:07:58.381Z,99.99
2018-05-13T23:10:24.913Z,100.00
2018-05-13T23:12:51.479Z,100.00
2018-05-13T23:15:17.961Z,100.00
2018-05-13T23:17:44.357Z,100.00
2018-05-13T23:20:10.696Z,100.00
2018-05-13T23:22:37.047Z,100.00
2018-05-13T23:25:03.518Z,100.00
2018-05-13T23:27:29.863Z,100.00
2018-05-13T23:29:56.248Z,100.00
2018-05-13T23:32:22.676Z,100.00
2018-05-13T23:34:49.394Z,100.00
2018-05-13T23:37:15.823Z,100.00
2018-05-13T23:39:42.244Z,100.00
2018-05-13T23:42:08.676Z,100.00
2018-05-13T23:44:35.422Z,100.00
2018-05-13T23:47:01.875Z,100.00
2018-05-13T23:49:28.215Z,100.00
2018-05-13T23:51:54.592Z,100.00
2018-05-13T23:54:21.059Z,100.00
2018-05-13T23:56:47.402Z,100.00
2018-05-13T23:59:13.740Z,100.00
